sensor_id;sensor_type;location;lat;lon;timestamp;P1;durP1;ratioP1;P2;durP2;ratioP2
20482;SDS011;10400;53.198;6.592;2023-04-03T00:00:29;3.80;;;1.60;;
20482;SDS011;10400;53.198;6.592;2023-04-03T00:02:55;3.33;;;1.30;;
20482;SDS011;10400;53.198;6.592;2023-04-03T00:05:20;4.40;;;1.63;;
20482;SDS011;10400;53.198;6.592;2023-04-03T00:07:46;3.17;;;1.10;;
20482;SDS011;10400;53.198;6.592;2023-04-03T00:10:12;1.73;;;1.30;;
20482;SDS011;10400;53.198;6.592;2023-04-03T00:12:38;2.33;;;1.20;;
20482;SDS011;10400;53.198;6.592;2023-04-03T00:15:04;2.87;;;1.10;;
20482;SDS011;10400;53.198;6.592;2023-04-03T00:17:30;3.63;;;1.27;;
20482;SDS011;10400;53.198;6.592;2023-04-03T00:19:56;3.17;;;1.10;;
20482;SDS011;10400;53.198;6.592;2023-04-03T00:22:22;1.83;;;1.10;;
20482;SDS011;10400;53.198;6.592;2023-04-03T00:24:47;3.57;;;1.43;;
20482;SDS011;10400;53.198;6.592;2023-04-03T00:27:13;2.23;;;1.10;;
20482;SDS011;10400;53.198;6.592;2023-04-03T00:29:40;2.80;;;1.00;;
20482;SDS011;10400;53.198;6.592;2023-04-03T00:32:06;4.10;;;1.20;;
20482;SDS011;10400;53.198;6.592;2023-04-03T00:34:31;2.43;;;1.30;;
20482;SDS011;10400;53.198;6.592;2023-04-03T00:36:57;4.23;;;1.30;;
20482;SDS011;10400;53.198;6.592;2023-04-03T00:39:23;4.87;;;1.40;;
20482;SDS011;10400;53.198;6.592;2023-04-03T00:41:48;3.97;;;1.40;;
20482;SDS011;10400;53.198;6.592;2023-04-03T00:44:21;2.47;;;1.23;;
20482;SDS011;10400;53.198;6.592;2023-04-03T00:47:08;2.37;;;1.10;;
20482;SDS011;10400;53.198;6.592;2023-04-03T00:49:37;6.37;;;1.73;;
20482;SDS011;10400;53.198;6.592;2023-04-03T00:52:05;3.77;;;1.30;;
20482;SDS011;10400;53.198;6.592;2023-04-03T00:54:33;3.90;;;1.17;;
20482;SDS011;10400;53.198;6.592;2023-04-03T00:57:01;2.50;;;1.30;;
20482;SDS011;10400;53.198;6.592;2023-04-03T00:59:30;3.77;;;1.13;;
20482;SDS011;10400;53.198;6.592;2023-04-03T01:01:57;4.60;;;1.30;;
20482;SDS011;10400;53.198;6.592;2023-04-03T01:06:55;3.90;;;1.20;;
20482;SDS011;10400;53.198;6.592;2023-04-03T01:09:23;2.90;;;1.40;;
20482;SDS011;10400;53.198;6.592;2023-04-03T01:11:49;4.90;;;1.43;;
20482;SDS011;10400;53.198;6.592;2023-04-03T01:14:14;5.57;;;1.27;;
20482;SDS011;10400;53.198;6.592;2023-04-03T01:16:40;1.70;;;1.10;;
20482;SDS011;10400;53.198;6.592;2023-04-03T01:19:06;4.97;;;1.87;;
20482;SDS011;10400;53.198;6.592;2023-04-03T01:24:53;4.67;;;1.33;;
20482;SDS011;10400;53.198;6.592;2023-04-03T01:27:19;4.17;;;1.27;;
20482;SDS011;10400;53.198;6.592;2023-04-03T01:29:45;3.60;;;1.07;;
20482;SDS011;10400;53.198;6.592;2023-04-03T01:32:11;2.97;;;1.20;;
20482;SDS011;10400;53.198;6.592;2023-04-03T01:34:36;5.60;;;1.60;;
20482;SDS011;10400;53.198;6.592;2023-04-03T01:37:02;4.40;;;1.53;;
20482;SDS011;10400;53.198;6.592;2023-04-03T01:39:28;4.60;;;1.60;;
20482;SDS011;10400;53.198;6.592;2023-04-03T01:41:53;4.80;;;1.70;;
20482;SDS011;10400;53.198;6.592;2023-04-03T01:44:19;8.73;;;1.80;;
20482;SDS011;10400;53.198;6.592;2023-04-03T01:46:45;4.97;;;1.33;;
20482;SDS011;10400;53.198;6.592;2023-04-03T01:49:11;4.33;;;1.33;;
20482;SDS011;10400;53.198;6.592;2023-04-03T01:51:36;2.97;;;1.23;;
20482;SDS011;10400;53.198;6.592;2023-04-03T01:54:02;3.23;;;1.30;;
20482;SDS011;10400;53.198;6.592;2023-04-03T01:56:28;3.17;;;1.20;;
20482;SDS011;10400;53.198;6.592;2023-04-03T01:58:53;4.17;;;1.57;;
20482;SDS011;10400;53.198;6.592;2023-04-03T02:01:19;5.20;;;1.50;;
20482;SDS011;10400;53.198;6.592;2023-04-03T02:03:46;1.90;;;1.20;;
20482;SDS011;10400;53.198;6.592;2023-04-03T02:06:11;3.70;;;1.50;;
20482;SDS011;10400;53.198;6.592;2023-04-03T02:08:37;2.50;;;1.40;;
20482;SDS011;10400;53.198;6.592;2023-04-03T02:11:02;4.57;;;1.80;;
20482;SDS011;10400;53.198;6.592;2023-04-03T02:13:28;2.67;;;1.50;;
20482;SDS011;10400;53.198;6.592;2023-04-03T02:15:54;3.63;;;1.67;;
20482;SDS011;10400;53.198;6.592;2023-04-03T02:18:19;2.47;;;1.50;;
20482;SDS011;10400;53.198;6.592;2023-04-03T02:20:46;4.73;;;1.63;;
20482;SDS011;10400;53.198;6.592;2023-04-03T02:23:12;7.70;;;1.50;;
20482;SDS011;10400;53.198;6.592;2023-04-03T02:25:38;2.80;;;1.60;;
20482;SDS011;10400;53.198;6.592;2023-04-03T02:28:03;3.30;;;1.40;;
20482;SDS011;10400;53.198;6.592;2023-04-03T02:30:29;4.40;;;1.50;;
20482;SDS011;10400;53.198;6.592;2023-04-03T02:32:55;5.03;;;1.37;;
20482;SDS011;10400;53.198;6.592;2023-04-03T02:35:21;5.53;;;1.60;;
20482;SDS011;10400;53.198;6.592;2023-04-03T02:37:46;4.60;;;1.50;;
20482;SDS011;10400;53.198;6.592;2023-04-03T02:40:12;4.23;;;1.70;;
20482;SDS011;10400;53.198;6.592;2023-04-03T02:42:37;4.57;;;1.50;;
20482;SDS011;10400;53.198;6.592;2023-04-03T02:45:03;4.70;;;1.70;;
20482;SDS011;10400;53.198;6.592;2023-04-03T02:47:30;8.03;;;2.00;;
20482;SDS011;10400;53.198;6.592;2023-04-03T02:49:55;2.87;;;1.53;;
20482;SDS011;10400;53.198;6.592;2023-04-03T02:52:21;3.63;;;1.70;;
20482;SDS011;10400;53.198;6.592;2023-04-03T02:54:47;5.33;;;1.70;;
20482;SDS011;10400;53.198;6.592;2023-04-03T02:57:12;4.80;;;1.70;;
20482;SDS011;10400;53.198;6.592;2023-04-03T02:59:38;2.17;;;1.40;;
20482;SDS011;10400;53.198;6.592;2023-04-03T03:02:05;4.53;;;1.77;;
20482;SDS011;10400;53.198;6.592;2023-04-03T03:04:32;4.80;;;1.70;;
20482;SDS011;10400;53.198;6.592;2023-04-03T03:06:58;4.97;;;1.80;;
20482;SDS011;10400;53.198;6.592;2023-04-03T03:09:24;3.57;;;1.60;;
20482;SDS011;10400;53.198;6.592;2023-04-03T03:11:50;3.67;;;1.50;;
20482;SDS011;10400;53.198;6.592;2023-04-03T03:14:16;6.63;;;2.13;;
20482;SDS011;10400;53.198;6.592;2023-04-03T03:16:41;7.93;;;1.80;;
20482;SDS011;10400;53.198;6.592;2023-04-03T03:19:07;3.63;;;1.83;;
20482;SDS011;10400;53.198;6.592;2023-04-03T03:21:33;4.30;;;2.03;;
20482;SDS011;10400;53.198;6.592;2023-04-03T03:23:58;3.03;;;1.70;;
20482;SDS011;10400;53.198;6.592;2023-04-03T03:26:24;7.20;;;1.83;;
20482;SDS011;10400;53.198;6.592;2023-04-03T03:28:50;4.53;;;1.70;;
20482;SDS011;10400;53.198;6.592;2023-04-03T03:31:16;5.23;;;1.60;;
20482;SDS011;10400;53.198;6.592;2023-04-03T03:33:41;3.37;;;1.77;;
20482;SDS011;10400;53.198;6.592;2023-04-03T03:36:07;3.53;;;1.63;;
20482;SDS011;10400;53.198;6.592;2023-04-03T03:38:33;6.00;;;1.80;;
20482;SDS011;10400;53.198;6.592;2023-04-03T03:40:58;2.87;;;1.87;;
20482;SDS011;10400;53.198;6.592;2023-04-03T03:43:24;5.17;;;1.80;;
20482;SDS011;10400;53.198;6.592;2023-04-03T03:45:53;5.83;;;1.97;;
20482;SDS011;10400;53.198;6.592;2023-04-03T03:48:19;4.90;;;2.10;;
20482;SDS011;10400;53.198;6.592;2023-04-03T03:50:45;5.40;;;2.13;;
20482;SDS011;10400;53.198;6.592;2023-04-03T03:53:12;5.97;;;1.80;;
20482;SDS011;10400;53.198;6.592;2023-04-03T03:55:37;5.77;;;1.93;;
20482;SDS011;10400;53.198;6.592;2023-04-03T03:58:03;9.03;;;2.80;;
20482;SDS011;10400;53.198;6.592;2023-04-03T04:00:28;9.63;;;2.57;;
20482;SDS011;10400;53.198;6.592;2023-04-03T04:02:55;5.70;;;2.53;;
20482;SDS011;10400;53.198;6.592;2023-04-03T04:05:21;5.03;;;2.27;;
20482;SDS011;10400;53.198;6.592;2023-04-03T04:07:46;5.33;;;1.80;;
20482;SDS011;10400;53.198;6.592;2023-04-03T04:10:12;8.13;;;2.30;;
20482;SDS011;10400;53.198;6.592;2023-04-03T04:12:38;6.00;;;2.00;;
20482;SDS011;10400;53.198;6.592;2023-04-03T04:15:04;5.17;;;2.10;;
20482;SDS011;10400;53.198;6.592;2023-04-03T04:17:30;5.43;;;1.90;;
20482;SDS011;10400;53.198;6.592;2023-04-03T04:19:56;6.23;;;2.90;;
20482;SDS011;10400;53.198;6.592;2023-04-03T04:22:22;5.10;;;2.07;;
20482;SDS011;10400;53.198;6.592;2023-04-03T04:24:47;4.80;;;2.20;;
20482;SDS011;10400;53.198;6.592;2023-04-03T04:27:13;7.20;;;2.40;;
20482;SDS011;10400;53.198;6.592;2023-04-03T04:29:40;7.73;;;2.37;;
20482;SDS011;10400;53.198;6.592;2023-04-03T04:32:06;7.67;;;2.90;;
20482;SDS011;10400;53.198;6.592;2023-04-03T04:34:32;8.40;;;2.90;;
20482;SDS011;10400;53.198;6.592;2023-04-03T04:36:57;10.10;;;2.40;;
20482;SDS011;10400;53.198;6.592;2023-04-03T04:39:23;8.23;;;2.13;;
20482;SDS011;10400;53.198;6.592;2023-04-03T04:41:49;4.83;;;2.27;;
20482;SDS011;10400;53.198;6.592;2023-04-03T04:44:14;3.40;;;1.93;;
20482;SDS011;10400;53.198;6.592;2023-04-03T04:46:40;9.30;;;2.57;;
20482;SDS011;10400;53.198;6.592;2023-04-03T04:49:05;7.37;;;2.53;;
20482;SDS011;10400;53.198;6.592;2023-04-03T04:51:31;5.63;;;2.17;;
20482;SDS011;10400;53.198;6.592;2023-04-03T04:53:57;7.53;;;2.80;;
20482;SDS011;10400;53.198;6.592;2023-04-03T04:56:22;4.33;;;2.40;;
20482;SDS011;10400;53.198;6.592;2023-04-03T04:58:48;8.77;;;2.33;;
20482;SDS011;10400;53.198;6.592;2023-04-03T05:01:14;7.57;;;2.70;;
20482;SDS011;10400;53.198;6.592;2023-04-03T05:03:40;6.17;;;2.10;;
20482;SDS011;10400;53.198;6.592;2023-04-03T05:06:05;7.57;;;2.33;;
20482;SDS011;10400;53.198;6.592;2023-04-03T05:08:31;6.40;;;2.53;;
20482;SDS011;10400;53.198;6.592;2023-04-03T05:10:57;8.87;;;3.00;;
20482;SDS011;10400;53.198;6.592;2023-04-03T05:13:23;5.87;;;2.73;;
20482;SDS011;10400;53.198;6.592;2023-04-03T05:15:48;11.53;;;2.67;;
20482;SDS011;10400;53.198;6.592;2023-04-03T05:18:14;6.97;;;2.90;;
20482;SDS011;10400;53.198;6.592;2023-04-03T05:20:40;6.03;;;3.00;;
20482;SDS011;10400;53.198;6.592;2023-04-03T05:23:06;8.70;;;3.23;;
20482;SDS011;10400;53.198;6.592;2023-04-03T05:25:31;7.43;;;2.80;;
20482;SDS011;10400;53.198;6.592;2023-04-03T05:27:57;5.90;;;2.80;;
20482;SDS011;10400;53.198;6.592;2023-04-03T05:30:23;8.83;;;3.03;;
20482;SDS011;10400;53.198;6.592;2023-04-03T05:32:49;8.10;;;3.13;;
20482;SDS011;10400;53.198;6.592;2023-04-03T05:35:15;7.03;;;2.50;;
20482;SDS011;10400;53.198;6.592;2023-04-03T05:37:40;9.67;;;2.97;;
20482;SDS011;10400;53.198;6.592;2023-04-03T05:40:06;6.50;;;3.00;;
20482;SDS011;10400;53.198;6.592;2023-04-03T05:42:32;4.10;;;2.90;;
20482;SDS011;10400;53.198;6.592;2023-04-03T05:44:58;8.00;;;2.77;;
20482;SDS011;10400;53.198;6.592;2023-04-03T05:47:24;8.17;;;2.60;;
20482;SDS011;10400;53.198;6.592;2023-04-03T05:49:50;11.93;;;3.27;;
20482;SDS011;10400;53.198;6.592;2023-04-03T05:54:52;6.33;;;2.70;;
20482;SDS011;10400;53.198;6.592;2023-04-03T05:57:18;5.93;;;2.73;;
20482;SDS011;10400;53.198;6.592;2023-04-03T05:59:44;5.53;;;2.80;;
20482;SDS011;10400;53.198;6.592;2023-04-03T06:02:14;8.47;;;2.70;;
20482;SDS011;10400;53.198;6.592;2023-04-03T06:04:45;9.47;;;3.03;;
20482;SDS011;10400;53.198;6.592;2023-04-03T06:07:13;5.13;;;2.50;;
20482;SDS011;10400;53.198;6.592;2023-04-03T06:09:41;7.23;;;3.07;;
20482;SDS011;10400;53.198;6.592;2023-04-03T06:12:07;8.10;;;2.93;;
20482;SDS011;10400;53.198;6.592;2023-04-03T06:14:33;7.40;;;2.57;;
20482;SDS011;10400;53.198;6.592;2023-04-03T06:17:00;6.73;;;2.33;;
20482;SDS011;10400;53.198;6.592;2023-04-03T06:19:26;7.30;;;2.40;;
20482;SDS011;10400;53.198;6.592;2023-04-03T06:21:52;7.37;;;2.30;;
20482;SDS011;10400;53.198;6.592;2023-04-03T06:24:18;7.63;;;3.00;;
20482;SDS011;10400;53.198;6.592;2023-04-03T06:26:46;7.53;;;2.57;;
20482;SDS011;10400;53.198;6.592;2023-04-03T06:29:12;11.27;;;2.20;;
20482;SDS011;10400;53.198;6.592;2023-04-03T06:31:38;8.00;;;2.50;;
20482;SDS011;10400;53.198;6.592;2023-04-03T06:34:04;8.57;;;2.70;;
20482;SDS011;10400;53.198;6.592;2023-04-03T06:36:32;10.93;;;3.00;;
20482;SDS011;10400;53.198;6.592;2023-04-03T06:38:58;8.50;;;2.43;;
20482;SDS011;10400;53.198;6.592;2023-04-03T06:41:23;9.30;;;2.50;;
20482;SDS011;10400;53.198;6.592;2023-04-03T06:43:51;10.90;;;2.53;;
20482;SDS011;10400;53.198;6.592;2023-04-03T06:46:17;6.97;;;2.50;;
20482;SDS011;10400;53.198;6.592;2023-04-03T06:48:45;9.30;;;2.37;;
20482;SDS011;10400;53.198;6.592;2023-04-03T06:51:27;10.80;;;2.97;;
20482;SDS011;10400;53.198;6.592;2023-04-03T06:53:55;10.40;;;2.30;;
20482;SDS011;10400;53.198;6.592;2023-04-03T06:56:22;7.43;;;2.73;;
20482;SDS011;10400;53.198;6.592;2023-04-03T06:58:48;9.40;;;2.60;;
20482;SDS011;10400;53.198;6.592;2023-04-03T07:01:16;7.93;;;2.33;;
20482;SDS011;10400;53.198;6.592;2023-04-03T07:03:43;7.07;;;2.33;;
20482;SDS011;10400;53.198;6.592;2023-04-03T07:06:11;4.90;;;2.70;;
20482;SDS011;10400;53.198;6.592;2023-04-03T07:08:38;9.10;;;2.87;;
20482;SDS011;10400;53.198;6.592;2023-04-03T07:11:04;9.80;;;2.87;;
20482;SDS011;10400;53.198;6.592;2023-04-03T07:13:30;7.13;;;3.27;;
20482;SDS011;10400;53.198;6.592;2023-04-03T07:15:56;9.93;;;3.00;;
20482;SDS011;10400;53.198;6.592;2023-04-03T07:18:22;8.07;;;3.03;;
20482;SDS011;10400;53.198;6.592;2023-04-03T07:20:48;8.40;;;2.17;;
20482;SDS011;10400;53.198;6.592;2023-04-03T07:23:14;8.00;;;2.93;;
20482;SDS011;10400;53.198;6.592;2023-04-03T07:25:43;8.77;;;2.93;;
20482;SDS011;10400;53.198;6.592;2023-04-03T07:28:10;9.60;;;3.00;;
20482;SDS011;10400;53.198;6.592;2023-04-03T07:30:42;8.33;;;2.73;;
20482;SDS011;10400;53.198;6.592;2023-04-03T07:33:11;10.87;;;2.80;;
20482;SDS011;10400;53.198;6.592;2023-04-03T07:35:39;6.93;;;2.60;;
20482;SDS011;10400;53.198;6.592;2023-04-03T07:38:05;6.47;;;2.40;;
20482;SDS011;10400;53.198;6.592;2023-04-03T07:40:31;7.07;;;2.87;;
20482;SDS011;10400;53.198;6.592;2023-04-03T07:42:57;5.30;;;2.30;;
20482;SDS011;10400;53.198;6.592;2023-04-03T07:45:23;7.90;;;2.57;;
20482;SDS011;10400;53.198;6.592;2023-04-03T07:47:49;7.33;;;2.93;;
20482;SDS011;10400;53.198;6.592;2023-04-03T07:50:15;8.70;;;2.50;;
20482;SDS011;10400;53.198;6.592;2023-04-03T07:52:41;8.27;;;2.67;;
20482;SDS011;10400;53.198;6.592;2023-04-03T07:55:07;8.27;;;2.47;;
20482;SDS011;10400;53.198;6.592;2023-04-03T07:57:33;6.80;;;2.20;;
20482;SDS011;10400;53.198;6.592;2023-04-03T07:59:59;5.70;;;2.17;;
20482;SDS011;10400;53.198;6.592;2023-04-03T08:02:24;3.67;;;2.07;;
20482;SDS011;10400;53.198;6.592;2023-04-03T08:04:50;7.27;;;2.47;;
20482;SDS011;10400;53.198;6.592;2023-04-03T08:07:16;7.20;;;2.40;;
20482;SDS011;10400;53.198;6.592;2023-04-03T08:09:41;8.00;;;1.87;;
20482;SDS011;10400;53.198;6.592;2023-04-03T08:12:07;6.00;;;2.30;;
20482;SDS011;10400;53.198;6.592;2023-04-03T08:14:33;6.20;;;1.80;;
20482;SDS011;10400;53.198;6.592;2023-04-03T08:17:01;7.57;;;2.50;;
20482;SDS011;10400;53.198;6.592;2023-04-03T08:19:29;5.72;;;2.03;;
20482;SDS011;10400;53.198;6.592;2023-04-03T08:21:55;7.37;;;1.70;;
20482;SDS011;10400;53.198;6.592;2023-04-03T08:24:23;9.43;;;2.40;;
20482;SDS011;10400;53.198;6.592;2023-04-03T08:26:49;6.82;;;2.22;;
20482;SDS011;10400;53.198;6.592;2023-04-03T08:29:15;5.53;;;2.30;;
20482;SDS011;10400;53.198;6.592;2023-04-03T08:31:41;7.73;;;2.37;;
20482;SDS011;10400;53.198;6.592;2023-04-03T08:34:07;3.28;;;1.50;;
20482;SDS011;10400;53.198;6.592;2023-04-03T08:36:33;3.43;;;1.50;;
20482;SDS011;10400;53.198;6.592;2023-04-03T08:38:59;4.90;;;1.20;;
20482;SDS011;10400;53.198;6.592;2023-04-03T08:41:35;5.50;;;1.60;;
20482;SDS011;10400;53.198;6.592;2023-04-03T08:52:39;5.25;;;1.35;;
20482;SDS011;10400;53.198;6.592;2023-04-03T08:55:17;4.80;;;1.48;;
20482;SDS011;10400;53.198;6.592;2023-04-03T08:57:58;5.22;;;2.08;;
20482;SDS011;10400;53.198;6.592;2023-04-03T09:03:16;4.28;;;1.63;;
20482;SDS011;10400;53.198;6.592;2023-04-03T09:05:52;4.78;;;1.60;;
20482;SDS011;10400;53.198;6.592;2023-04-03T09:08:25;4.03;;;1.50;;
20482;SDS011;10400;53.198;6.592;2023-04-03T09:22:20;5.22;;;1.55;;
20482;SDS011;10400;53.198;6.592;2023-04-03T09:25:12;3.40;;;1.20;;
20482;SDS011;10400;53.198;6.592;2023-04-03T09:27:44;6.07;;;1.77;;
20482;SDS011;10400;53.198;6.592;2023-04-03T09:30:21;5.70;;;1.50;;
20482;SDS011;10400;53.198;6.592;2023-04-03T09:32:49;3.17;;;1.48;;
20482;SDS011;10400;53.198;6.592;2023-04-03T09:35:18;6.45;;;1.70;;
20482;SDS011;10400;53.198;6.592;2023-04-03T09:38:00;2.67;;;1.10;;
20482;SDS011;10400;53.198;6.592;2023-04-03T09:40:36;5.15;;;1.50;;
20482;SDS011;10400;53.198;6.592;2023-04-03T09:43:37;5.40;;;1.42;;
20482;SDS011;10400;53.198;6.592;2023-04-03T09:48:59;2.78;;;1.45;;
20482;SDS011;10400;53.198;6.592;2023-04-03T09:51:27;3.95;;;1.40;;
20482;SDS011;10400;53.198;6.592;2023-04-03T09:53:53;2.75;;;1.10;;
20482;SDS011;10400;53.198;6.592;2023-04-03T09:58:49;2.53;;;1.00;;
20482;SDS011;10400;53.198;6.592;2023-04-03T10:01:29;5.13;;;1.33;;
20482;SDS011;10400;53.198;6.592;2023-04-03T10:06:32;3.15;;;1.33;;
20482;SDS011;10400;53.198;6.592;2023-04-03T10:09:12;4.05;;;1.40;;
20482;SDS011;10400;53.198;6.592;2023-04-03T10:14:41;2.60;;;1.00;;
20482;SDS011;10400;53.198;6.592;2023-04-03T10:20:22;1.60;;;1.00;;
20482;SDS011;10400;53.198;6.592;2023-04-03T10:29:22;3.17;;;1.00;;
20482;SDS011;10400;53.198;6.592;2023-04-03T10:34:50;3.85;;;1.10;;
20482;SDS011;10400;53.198;6.592;2023-04-03T10:43:42;1.65;;;0.70;;
20482;SDS011;10400;53.198;6.592;2023-04-03T10:46:27;3.88;;;0.80;;
20482;SDS011;10400;53.198;6.592;2023-04-03T10:49:09;2.75;;;1.00;;
20482;SDS011;10400;53.198;6.592;2023-04-03T10:51:44;1.77;;;0.88;;
20482;SDS011;10400;53.198;6.592;2023-04-03T10:59:38;3.00;;;1.00;;
20482;SDS011;10400;53.198;6.592;2023-04-03T11:02:07;2.33;;;0.95;;
20482;SDS011;10400;53.198;6.592;2023-04-03T11:05:03;1.70;;;0.85;;
20482;SDS011;10400;53.198;6.592;2023-04-03T11:07:38;2.83;;;0.93;;
20482;SDS011;10400;53.198;6.592;2023-04-03T11:10:12;5.25;;;1.00;;
20482;SDS011;10400;53.198;6.592;2023-04-03T11:12:51;5.70;;;1.35;;
20482;SDS011;10400;53.198;6.592;2023-04-03T11:15:23;1.50;;;0.93;;
20482;SDS011;10400;53.198;6.592;2023-04-03T11:17:58;3.03;;;1.00;;
20482;SDS011;10400;53.198;6.592;2023-04-03T11:20:32;3.03;;;1.10;;
20482;SDS011;10400;53.198;6.592;2023-04-03T11:25:49;6.28;;;1.15;;
20482;SDS011;10400;53.198;6.592;2023-04-03T11:28:18;2.05;;;0.80;;
20482;SDS011;10400;53.198;6.592;2023-04-03T11:36:53;3.05;;;1.00;;
20482;SDS011;10400;53.198;6.592;2023-04-03T11:39:34;3.20;;;0.77;;
20482;SDS011;10400;53.198;6.592;2023-04-03T11:42:22;2.47;;;0.98;;
20482;SDS011;10400;53.198;6.592;2023-04-03T11:47:52;2.80;;;0.90;;
20482;SDS011;10400;53.198;6.592;2023-04-03T12:05:50;1.35;;;0.73;;
20482;SDS011;10400;53.198;6.592;2023-04-03T12:16:29;2.35;;;0.77;;
20482;SDS011;10400;53.198;6.592;2023-04-03T12:26:46;3.47;;;0.90;;
20482;SDS011;10400;53.198;6.592;2023-04-03T12:34:27;1.75;;;1.15;;
20482;SDS011;10400;53.198;6.592;2023-04-03T12:48:30;1.17;;;0.95;;
20482;SDS011;10400;53.198;6.592;2023-04-03T12:50:59;1.88;;;1.20;;
20482;SDS011;10400;53.198;6.592;2023-04-03T12:53:26;3.00;;;1.15;;
20482;SDS011;10400;53.198;6.592;2023-04-03T12:56:18;4.95;;;1.55;;
20482;SDS011;10400;53.198;6.592;2023-04-03T12:58:52;3.50;;;1.00;;
20482;SDS011;10400;53.198;6.592;2023-04-03T13:01:25;4.22;;;0.98;;
20482;SDS011;10400;53.198;6.592;2023-04-03T13:03:52;2.92;;;1.13;;
20482;SDS011;10400;53.198;6.592;2023-04-03T13:06:37;3.50;;;1.15;;
20482;SDS011;10400;53.198;6.592;2023-04-03T13:09:05;5.57;;;1.10;;
20482;SDS011;10400;53.198;6.592;2023-04-03T13:11:43;2.55;;;1.42;;
20482;SDS011;10400;53.198;6.592;2023-04-03T13:14:15;3.40;;;1.30;;
20482;SDS011;10400;53.198;6.592;2023-04-03T13:17:26;9.10;;;1.50;;
20482;SDS011;10400;53.198;6.592;2023-04-03T13:19:40;2.90;;;1.20;;
20482;SDS011;10400;53.198;6.592;2023-04-03T13:22:10;2.65;;;0.93;;
20482;SDS011;10400;53.198;6.592;2023-04-03T13:25:05;5.63;;;1.30;;
20482;SDS011;10400;53.198;6.592;2023-04-03T13:27:34;2.55;;;0.90;;
20482;SDS011;10400;53.198;6.592;2023-04-03T13:30:00;1.67;;;1.02;;
20482;SDS011;10400;53.198;6.592;2023-04-03T13:32:28;2.72;;;0.90;;
20482;SDS011;10400;53.198;6.592;2023-04-03T13:34:56;2.35;;;0.88;;
20482;SDS011;10400;53.198;6.592;2023-04-03T13:37:30;1.63;;;0.88;;
20482;SDS011;10400;53.198;6.592;2023-04-03T13:42:28;4.75;;;1.10;;
20482;SDS011;10400;53.198;6.592;2023-04-03T13:47:45;1.05;;;0.80;;
20482;SDS011;10400;53.198;6.592;2023-04-03T13:50:14;2.42;;;1.05;;
20482;SDS011;10400;53.198;6.592;2023-04-03T13:52:50;3.97;;;1.00;;
20482;SDS011;10400;53.198;6.592;2023-04-03T13:55:26;2.85;;;1.02;;
20482;SDS011;10400;53.198;6.592;2023-04-03T14:02:58;2.95;;;1.10;;
20482;SDS011;10400;53.198;6.592;2023-04-03T14:05:23;2.47;;;1.10;;
20482;SDS011;10400;53.198;6.592;2023-04-03T14:07:52;3.45;;;0.98;;
20482;SDS011;10400;53.198;6.592;2023-04-03T14:10:19;4.10;;;1.15;;
20482;SDS011;10400;53.198;6.592;2023-04-03T14:12:45;3.38;;;0.93;;
20482;SDS011;10400;53.198;6.592;2023-04-03T14:15:44;2.42;;;1.48;;
20482;SDS011;10400;53.198;6.592;2023-04-03T14:18:03;3.25;;;1.00;;
20482;SDS011;10400;53.198;6.592;2023-04-03T14:20:29;3.53;;;1.10;;
20482;SDS011;10400;53.198;6.592;2023-04-03T14:22:54;1.80;;;1.20;;
20482;SDS011;10400;53.198;6.592;2023-04-03T14:25:22;4.07;;;1.45;;
20482;SDS011;10400;53.198;6.592;2023-04-03T14:27:51;4.47;;;1.05;;
20482;SDS011;10400;53.198;6.592;2023-04-03T14:30:29;3.50;;;1.15;;
20482;SDS011;10400;53.198;6.592;2023-04-03T14:32:58;3.25;;;0.93;;
20482;SDS011;10400;53.198;6.592;2023-04-03T14:35:24;4.28;;;1.20;;
20482;SDS011;10400;53.198;6.592;2023-04-03T14:37:50;3.05;;;0.85;;
20482;SDS011;10400;53.198;6.592;2023-04-03T14:40:18;3.10;;;1.20;;
20482;SDS011;10400;53.198;6.592;2023-04-03T14:42:46;2.00;;;1.20;;
20482;SDS011;10400;53.198;6.592;2023-04-03T14:45:13;1.90;;;0.85;;
20482;SDS011;10400;53.198;6.592;2023-04-03T14:47:44;2.35;;;0.70;;
20482;SDS011;10400;53.198;6.592;2023-04-03T14:50:14;3.90;;;1.10;;
20482;SDS011;10400;53.198;6.592;2023-04-03T14:52:48;2.47;;;0.98;;
20482;SDS011;10400;53.198;6.592;2023-04-03T14:55:16;2.75;;;0.90;;
20482;SDS011;10400;53.198;6.592;2023-04-03T14:57:44;2.17;;;0.90;;
20482;SDS011;10400;53.198;6.592;2023-04-03T15:00:13;2.00;;;0.82;;
20482;SDS011;10400;53.198;6.592;2023-04-03T15:02:40;1.98;;;0.90;;
20482;SDS011;10400;53.198;6.592;2023-04-03T15:05:08;5.00;;;1.05;;
20482;SDS011;10400;53.198;6.592;2023-04-03T15:07:36;4.30;;;1.00;;
20482;SDS011;10400;53.198;6.592;2023-04-03T15:10:22;5.03;;;1.20;;
20482;SDS011;10400;53.198;6.592;2023-04-03T15:12:50;2.80;;;0.90;;
20482;SDS011;10400;53.198;6.592;2023-04-03T15:15:17;1.90;;;1.00;;
20482;SDS011;10400;53.198;6.592;2023-04-03T15:17:45;3.30;;;1.25;;
20482;SDS011;10400;53.198;6.592;2023-04-03T15:20:14;4.60;;;1.10;;
20482;SDS011;10400;53.198;6.592;2023-04-03T15:22:41;3.47;;;0.98;;
20482;SDS011;10400;53.198;6.592;2023-04-03T15:25:08;2.67;;;1.08;;
20482;SDS011;10400;53.198;6.592;2023-04-03T15:27:34;2.60;;;1.00;;
20482;SDS011;10400;53.198;6.592;2023-04-03T15:30:00;3.25;;;0.98;;
20482;SDS011;10400;53.198;6.592;2023-04-03T15:32:26;1.63;;;1.00;;
20482;SDS011;10400;53.198;6.592;2023-04-03T15:34:51;2.38;;;1.00;;
20482;SDS011;10400;53.198;6.592;2023-04-03T15:37:19;2.47;;;1.10;;
20482;SDS011;10400;53.198;6.592;2023-04-03T15:39:44;5.00;;;1.23;;
20482;SDS011;10400;53.198;6.592;2023-04-03T15:42:10;3.40;;;1.98;;
20482;SDS011;10400;53.198;6.592;2023-04-03T15:44:37;1.92;;;0.90;;
20482;SDS011;10400;53.198;6.592;2023-04-03T15:47:03;2.13;;;0.80;;
20482;SDS011;10400;53.198;6.592;2023-04-03T15:49:29;1.77;;;0.80;;
20482;SDS011;10400;53.198;6.592;2023-04-03T15:51:57;4.00;;;0.85;;
20482;SDS011;10400;53.198;6.592;2023-04-03T15:54:23;2.10;;;0.70;;
20482;SDS011;10400;53.198;6.592;2023-04-03T15:56:50;2.78;;;0.90;;
20482;SDS011;10400;53.198;6.592;2023-04-03T15:59:16;2.40;;;0.80;;
20482;SDS011;10400;53.198;6.592;2023-04-03T16:01:42;1.60;;;0.60;;
20482;SDS011;10400;53.198;6.592;2023-04-03T16:04:10;2.25;;;0.88;;
20482;SDS011;10400;53.198;6.592;2023-04-03T16:06:36;1.10;;;1.00;;
20482;SDS011;10400;53.198;6.592;2023-04-03T16:09:03;1.02;;;0.65;;
20482;SDS011;10400;53.198;6.592;2023-04-03T16:11:29;1.48;;;0.80;;
20482;SDS011;10400;53.198;6.592;2023-04-03T16:13:55;2.55;;;1.00;;
20482;SDS011;10400;53.198;6.592;2023-04-03T16:16:21;3.28;;;0.82;;
20482;SDS011;10400;53.198;6.592;2023-04-03T16:18:48;2.15;;;0.90;;
20482;SDS011;10400;53.198;6.592;2023-04-03T16:21:15;4.47;;;1.13;;
20482;SDS011;10400;53.198;6.592;2023-04-03T16:23:42;2.60;;;0.90;;
20482;SDS011;10400;53.198;6.592;2023-04-03T16:26:08;3.25;;;1.20;;
20482;SDS011;10400;53.198;6.592;2023-04-03T16:28:34;4.75;;;1.10;;
20482;SDS011;10400;53.198;6.592;2023-04-03T16:31:00;1.55;;;0.80;;
20482;SDS011;10400;53.198;6.592;2023-04-03T16:33:27;3.33;;;0.90;;
20482;SDS011;10400;53.198;6.592;2023-04-03T16:35:53;3.08;;;1.02;;
20482;SDS011;10400;53.198;6.592;2023-04-03T16:38:18;4.00;;;1.00;;
20482;SDS011;10400;53.198;6.592;2023-04-03T16:40:45;1.80;;;1.20;;
20482;SDS011;10400;53.198;6.592;2023-04-03T16:43:11;2.22;;;0.70;;
20482;SDS011;10400;53.198;6.592;2023-04-03T16:45:36;2.28;;;0.90;;
20482;SDS011;10400;53.198;6.592;2023-04-03T16:48:02;2.50;;;1.05;;
20482;SDS011;10400;53.198;6.592;2023-04-03T16:50:28;3.28;;;1.17;;
20482;SDS011;10400;53.198;6.592;2023-04-03T16:52:54;4.82;;;1.17;;
20482;SDS011;10400;53.198;6.592;2023-04-03T16:55:20;5.15;;;1.30;;
20482;SDS011;10400;53.198;6.592;2023-04-03T16:57:46;3.65;;;1.17;;
20482;SDS011;10400;53.198;6.592;2023-04-03T17:00:12;5.50;;;1.00;;
20482;SDS011;10400;53.198;6.592;2023-04-03T17:02:39;3.92;;;1.02;;
20482;SDS011;10400;53.198;6.592;2023-04-03T17:05:05;3.72;;;1.15;;
20482;SDS011;10400;53.198;6.592;2023-04-03T17:07:31;5.85;;;1.30;;
20482;SDS011;10400;53.198;6.592;2023-04-03T17:09:57;3.35;;;1.30;;